Monday, September 24, 2018, 5:52 PM EDT
Back to Local

KNGU, Norfolk, Naval Air Station

Location: Norfolk, VA, United States Lat: 36.934
Local Time: 5:52 PM EDT (21:52 GMT) Lon: -76.296
Time Zone: US/Eastern Elev: 13 ft

Show me the last for .
Show Decoded

2018-09-24 16:59 METAR KNGU 242059Z 09009KT 5SM -RA BR BKN037 OVC075 24/22 A3022 RMK AO2 SLP233
                 P0037 60084 T02440222 58001 =
2018-09-24 16:51 METAR KNGU 242051Z 08009KT 3SM -RA BR SCT037 BKN049 OVC070 24/22 A3022 RMK AO2
                 P0037 T02390222 =
2018-09-24 16:47 METAR KNGU 242047Z 08008KT 1 3/4SM -RA BR BKN037 BKN049 OVC070 24/22 A3022 RMK
                 AO2 P0036 T02390222 =
2018-09-24 16:42 METAR KNGU 242042Z 09009KT 1SM RA BR BKN037 OVC055 24/22 A3022 RMK AO2 P0036
                 T02390222 =
2018-09-24 16:26 METAR KNGU 242026Z 10011KT 1 1/2SM +RA BR BKN034 OVC050 24/22 A3022 RMK AO2
                 P0023 T02390222 =
2018-09-24 16:23 METAR KNGU 242023Z 10012KT 2SM RA BR BKN034 OVC050 24/23 A3022 RMK AO2 P0021
                 T02390228 =
2018-09-24 16:16 METAR KNGU 242016Z 09010KT 2SM -RA BR FEW009 BKN026 OVC050 24/23 A3022 RMK AO2
                 P0017 T02390228 =
2018-09-24 16:11 METAR KNGU 242011Z 09008KT 1 1/4SM RA BR FEW009 BKN026 OVC050 24/23 A3022 RMK
                 AO2 P0016 T02390228 =
2018-09-24 16:06 METAR KNGU 242006Z 08010KT 3/4SM +RA BR SCT009 BKN026 OVC050 24/23 A3022 RMK AO2
                 P0014 T02390228 =
2018-09-24 15:59 METAR KNGU 241959Z 09007KT 3/4SM +RA BR SCT011 BKN026 OVC050 24/23 A3022 RMK AO2
                 RAE04B31 SLP234 P0047 T02390228 =
2018-09-24 15:57 METAR KNGU 241957Z 09008G17KT 3/4SM +RA BR FEW011 BKN026 OVC050 24/23 A3022 RMK
                 AO2 RAE04B31 P0042 =
2018-09-24 15:48 METAR KNGU 241948Z 10012KT 1/2SM +RA FG SCT011 BKN028 OVC050 24/22 A3023 RMK AO2
                 RAE04B31 P0024 T02390222 =
2018-09-24 15:44 METAR KNGU 241944Z 11014KT 1SM +RA BR SCT011 BKN033 OVC050 24/22 A3022 RMK AO2
                 RAE04B31 P0014 T02390222 =
2018-09-24 15:42 METAR KNGU 241942Z 11014KT 1 1/4SM RA BR BKN011 BKN037 OVC075 24/22 A3022 RMK
                 AO2 RAE04B31 P0007 T02390222 =
2018-09-24 15:39 METAR KNGU 241939Z 11013KT 2 1/2SM -RA BR BKN011 BKN037 OVC085 24/22 A3022 RMK
                 AO2 RAE04B31 CIG 006V021 P0002 T02440222 =
2018-09-24 14:59 METAR KNGU 241859Z 09015G21KT 9SM -RA FEW019 BKN042 OVC065 25/22 A3022 RMK AO2
                 RAB54 SLP234 P0000 T02500217 =
2018-09-24 14:18 METAR KNGU 241818Z 08015G21KT 7SM BKN018 BKN027 OVC070 26/22 A3023 RMK AO2
                 T02610222 =
2018-09-24 13:59 METAR KNGU 241759Z 08010KT 10SM FEW015 BKN070 27/22 A3024 RMK AO2 SLP238
                 T02670217 10272 20222 58005 =
2018-09-24 12:59 METAR KNGU 241659Z 08003KT 10SM SCT017 BKN065 OVC280 27/21 A3025 RMK AO2 SLP242
                 T02670211 =
2018-09-24 12:38 METAR KNGU 241638Z 05010KT 10SM SCT015 BKN050 BKN065 27/22 A3025 RMK AO2
                 T02670217 =
2018-09-24 12:07 METAR KNGU 241607Z 05006KT 10SM BKN013 BKN090 26/22 A3025 RMK AO2 T02610222 =
2018-09-24 11:59 METAR KNGU 241559Z 05009KT 10SM SCT011 BKN090 BKN250 27/22 A3025 RMK AO2 SLP243
                 T02670222 =
2018-09-24 11:47 METAR KNGU 241547Z 06010KT 10SM SCT011 BKN090 26/22 A3025 RMK AO2 T02610222 =
2018-09-24 11:09 METAR KNGU 241509Z 04012KT 9SM BKN013 BKN033 BKN070 25/22 A3025 RMK AO2
                 T02500222 
2018-09-24 10:59 METAR KNGU 241459Z 04013KT 9SM SCT013 SCT020 BKN033 26/23 A3025 RMK AO2 SLP243
                 T02560228 51007 =
2018-09-24 10:42 METAR KNGU 241442Z 03008KT 8SM FEW013 SCT025 OVC033 25/22 A3025 RMK AO2
                 T02500222 =
2018-09-24 10:24 METAR KNGU 241424Z 04007KT 10SM SCT013 OVC029 25/22 A3025 RMK AO2 T02500217 =
2018-09-24 10:16 METAR KNGU 241416Z 03006KT 10SM BKN013 OVC027 25/22 A3025 RMK AO2 T02500217 =
2018-09-24 09:59 METAR KNGU 241359Z 04006KT 9SM SCT011 BKN022 OVC027 25/22 A3025 RMK AO2 SLP242
                 T02500217 =
2018-09-24 09:27 METAR KNGU 241327Z 00000KT 8SM SCT010 BKN015 OVC022 24/22 A3024 RMK AO2
                 T02390222 =
2018-09-24 08:59 METAR KNGU 241259Z 00000KT 7SM OVC007 23/22 A3024 RMK AO2 SLP239 T02330217 =
2018-09-24 08:30 METAR KNGU 241230Z 29003KT 8SM OVC006 23/21 A3023 RMK AO2 T02280211 =
2018-09-24 08:08 METAR KNGU 241208Z 24003KT 7SM OVC005 22/21 A3023 RMK AO2 T02220211 =
2018-09-24 07:59 METAR KNGU 241159Z 00000KT 6SM BR OVC004 22/21 A3023 RMK AO2 SLP236 70047
                 T02220211 10222 20211 53015 =
2018-09-24 07:10 METAR KNGU 241110Z 30004KT 6SM BR OVC004 22/21 A3021 RMK AO2 T02170206 =
2018-09-24 06:59 METAR KNGU 241059Z 31005KT 8SM OVC005 22/21 A3021 RMK AO2 SLP229 T02170206 =
2018-09-24 06:30 METAR KNGU 241030Z 31004KT 10SM OVC005 22/21 A3020 RMK AO2 T02170206 =
2018-09-24 05:59 METAR KNGU 240959Z 31004KT 10SM OVC004 22/21 A3019 RMK AO2 SLP224 T02170206 =
2018-09-24 04:59 METAR KNGU 240859Z 30004KT 9SM OVC004 22/21 A3018 RMK AO2 SLP221 T02170206 53006
                 $ =
2018-09-24 03:59 METAR KNGU 240759Z 31005KT 8SM OVC004 22/21 A3017 RMK AO2 SLP216 T02170206 $ =
2018-09-24 02:59 METAR KNGU 240659Z 33007KT 7SM OVC004 22/21 A3017 RMK AO2 SLP216 T02170206 $ =
2018-09-24 02:31 METAR KNGU 240631Z 31007KT 7SM OVC004 22/21 A3017 RMK AO2 T02220211 $ =
2018-09-24 01:59 METAR KNGU 240559Z 31005KT 9SM BKN006 OVC015 22/21 A3017 RMK AO2 SLP215 60000
                 T02220211 10233 20222 51001 $ =
2018-09-24 00:59 METAR KNGU 240459Z 31005KT 10SM FEW006 BKN017 BKN050 23/21 A3017 RMK AO2 SLP215
                 T02280211 402890211 $ =
2018-09-23 23:59 METAR KNGU 240359Z 32006KT 10SM FEW007 BKN015 BKN085 23/22 A3017 RMK AO2 SLP216
                 T02330217 =
2018-09-23 23:05 METAR KNGU 240305Z 27003KT 10SM BKN015 BKN085 23/21 A3016 RMK AO2 T02280211 =
2018-09-23 22:59 METAR KNGU 240259Z 28004KT 10SM SCT015 SCT050 BKN080 23/21 A3016 RMK AO2 SLP214
                 60000 T02280211 51010 =
2018-09-23 21:59 METAR KNGU 240159Z 27003KT 10SM FEW010 SCT049 BKN080 23/21 A3015 RMK AO2 SLP211
                 T02280211 =
2018-09-23 20:59 METAR KNGU 240059Z 22004KT 9SM FEW011 BKN020 BKN070 23/22 A3015 RMK AO2 RAE40
                 SLP209 P0000 T02280217 =
2018-09-23 19:59 METAR KNGU 232359Z 18003KT 10SM -RA FEW011 OVC028 23/22 A3013 RMK AO2 RAB48
                 SLP204 P0000 60047 T02280217 10278 20228 51013 =
2018-09-23 19:49 METAR KNGU 232349Z 17004KT 10SM -RA FEW011 OVC028 23/22 A3013 RMK AO2 RAB48
                 P0000 T02280217 =
2018-09-23 19:20 METAR KNGU 232320Z 18004KT 10SM SCT011 BKN048 OVC100 23/22 A3012 RMK AO2
                 T02280217 =
2018-09-23 18:59 METAR KNGU 232259Z 18003KT 9SM BKN028 OVC100 23/22 A3012 RMK AO2 SLP199
                 T02280217 =
2018-09-23 17:59 METAR KNGU 232159Z 00000KT 9SM BKN028 OVC200 24/22 A3011 RMK AO2 RAE06 SLP196
                 P0000 T02390222 =

Support USWX by starting your Amazon purchase here.